You are listening to:
KSCH Gnd/Twr - Schenectady, New York, United States

KSCH 051858Z 29012G15KT 15SM SCT055 27/14 A3002

If stream doesn't start automatically press the play button
If stream stops then reload player then press play